sensor_id;sensor_type;location;lat;lon;timestamp;temperature;humidity
27823;DHT22;29019;47.630;8.262;2023-03-12T00:00:32;19.70;31.90
27823;DHT22;29019;47.630;8.262;2023-03-12T00:04:32;19.70;31.90
27823;DHT22;29019;47.630;8.262;2023-03-12T00:08:35;19.60;31.80
27823;DHT22;29019;47.630;8.262;2023-03-12T00:12:35;19.70;31.90
27823;DHT22;29019;47.630;8.262;2023-03-12T00:16:36;19.60;31.90
27823;DHT22;29019;47.630;8.262;2023-03-12T00:20:36;19.60;31.90
27823;DHT22;29019;47.630;8.262;2023-03-12T00:24:37;19.60;31.90
27823;DHT22;29019;47.630;8.262;2023-03-12T00:28:37;19.60;31.90
27823;DHT22;29019;47.630;8.262;2023-03-12T00:32:38;19.60;31.90
27823;DHT22;29019;47.630;8.262;2023-03-12T00:36:38;19.60;31.90
27823;DHT22;29019;47.630;8.262;2023-03-12T00:40:40;19.60;32.00
27823;DHT22;29019;47.630;8.262;2023-03-12T00:44:41;19.50;32.00
27823;DHT22;29019;47.630;8.262;2023-03-12T00:48:42;19.60;32.00
27823;DHT22;29019;47.630;8.262;2023-03-12T00:52:43;19.50;32.00
27823;DHT22;29019;47.630;8.262;2023-03-12T00:56:43;19.50;32.00
27823;DHT22;29019;47.630;8.262;2023-03-12T01:00:45;19.50;32.00
27823;DHT22;29019;47.630;8.262;2023-03-12T01:04:46;19.40;32.00
27823;DHT22;29019;47.630;8.262;2023-03-12T01:08:46;19.40;32.50
27823;DHT22;29019;47.630;8.262;2023-03-12T01:12:47;19.40;32.00
27823;DHT22;29019;47.630;8.262;2023-03-12T01:16:47;19.40;32.00
27823;DHT22;29019;47.630;8.262;2023-03-12T01:20:48;19.40;32.00
27823;DHT22;29019;47.630;8.262;2023-03-12T01:24:48;19.40;32.00
27823;DHT22;29019;47.630;8.262;2023-03-12T01:28:49;19.40;32.10
27823;DHT22;29019;47.630;8.262;2023-03-12T01:32:52;19.30;32.00
27823;DHT22;29019;47.630;8.262;2023-03-12T01:36:52;19.40;32.00
27823;DHT22;29019;47.630;8.262;2023-03-12T01:40:54;19.30;32.00
27823;DHT22;29019;47.630;8.262;2023-03-12T01:44:56;19.30;32.00
27823;DHT22;29019;47.630;8.262;2023-03-12T01:53:15;19.30;32.10
27823;DHT22;29019;47.630;8.262;2023-03-12T01:57:23;19.30;32.10
27823;DHT22;29019;47.630;8.262;2023-03-12T02:01:25;19.30;32.10
27823;DHT22;29019;47.630;8.262;2023-03-12T02:05:28;19.30;32.10
27823;DHT22;29019;47.630;8.262;2023-03-12T02:09:33;19.20;32.10
27823;DHT22;29019;47.630;8.262;2023-03-12T02:13:34;19.20;32.10
27823;DHT22;29019;47.630;8.262;2023-03-12T02:17:35;19.20;32.10
27823;DHT22;29019;47.630;8.262;2023-03-12T02:21:36;19.20;32.10
27823;DHT22;29019;47.630;8.262;2023-03-12T02:25:48;19.20;32.10
27823;DHT22;29019;47.630;8.262;2023-03-12T02:29:49;19.20;32.10
27823;DHT22;29019;47.630;8.262;2023-03-12T02:33:50;19.20;32.20
27823;DHT22;29019;47.630;8.262;2023-03-12T02:37:53;19.20;32.20
27823;DHT22;29019;47.630;8.262;2023-03-12T02:41:54;19.20;32.20
27823;DHT22;29019;47.630;8.262;2023-03-12T02:45:56;19.10;32.70
27823;DHT22;29019;47.630;8.262;2023-03-12T02:49:57;19.10;32.10
27823;DHT22;29019;47.630;8.262;2023-03-12T02:53:57;19.10;32.20
27823;DHT22;29019;47.630;8.262;2023-03-12T02:57:58;19.10;32.20
27823;DHT22;29019;47.630;8.262;2023-03-12T03:01:59;19.10;32.20
27823;DHT22;29019;47.630;8.262;2023-03-12T03:05:59;19.10;32.20
27823;DHT22;29019;47.630;8.262;2023-03-12T03:10:00;19.10;32.20
27823;DHT22;29019;47.630;8.262;2023-03-12T03:14:03;19.10;32.20
27823;DHT22;29019;47.630;8.262;2023-03-12T03:18:06;19.10;32.20
27823;DHT22;29019;47.630;8.262;2023-03-12T03:22:06;19.00;32.20
27823;DHT22;29019;47.630;8.262;2023-03-12T03:26:07;19.00;32.30
27823;DHT22;29019;47.630;8.262;2023-03-12T03:30:07;19.00;32.30
27823;DHT22;29019;47.630;8.262;2023-03-12T03:34:08;19.00;32.30
27823;DHT22;29019;47.630;8.262;2023-03-12T03:38:09;19.00;32.30
27823;DHT22;29019;47.630;8.262;2023-03-12T03:42:09;19.00;32.30
27823;DHT22;29019;47.630;8.262;2023-03-12T03:46:10;19.00;32.30
27823;DHT22;29019;47.630;8.262;2023-03-12T03:50:11;19.00;32.30
27823;DHT22;29019;47.630;8.262;2023-03-12T03:54:12;18.90;32.30
27823;DHT22;29019;47.630;8.262;2023-03-12T03:58:13;18.90;32.30
27823;DHT22;29019;47.630;8.262;2023-03-12T04:02:13;18.90;32.30
27823;DHT22;29019;47.630;8.262;2023-03-12T04:06:14;18.90;32.30
27823;DHT22;29019;47.630;8.262;2023-03-12T04:10:14;18.90;32.30
27823;DHT22;29019;47.630;8.262;2023-03-12T04:14:14;18.90;32.30
27823;DHT22;29019;47.630;8.262;2023-03-12T04:18:15;18.90;32.30
27823;DHT22;29019;47.630;8.262;2023-03-12T04:22:15;18.90;32.30
27823;DHT22;29019;47.630;8.262;2023-03-12T04:26:16;18.90;32.30
27823;DHT22;29019;47.630;8.262;2023-03-12T04:30:16;18.90;32.30
27823;DHT22;29019;47.630;8.262;2023-03-12T04:34:17;18.90;32.30
27823;DHT22;29019;47.630;8.262;2023-03-12T04:38:18;18.90;32.30
27823;DHT22;29019;47.630;8.262;2023-03-12T04:42:19;18.90;32.30
27823;DHT22;29019;47.630;8.262;2023-03-12T04:46:19;18.90;32.80
27823;DHT22;29019;47.630;8.262;2023-03-12T04:50:20;18.90;32.20
27823;DHT22;29019;47.630;8.262;2023-03-12T04:54:20;18.90;32.20
27823;DHT22;29019;47.630;8.262;2023-03-12T04:58:21;18.90;32.20
27823;DHT22;29019;47.630;8.262;2023-03-12T05:02:22;18.90;32.20
27823;DHT22;29019;47.630;8.262;2023-03-12T05:06:23;18.90;32.20
27823;DHT22;29019;47.630;8.262;2023-03-12T05:10:23;18.90;32.30
27823;DHT22;29019;47.630;8.262;2023-03-12T05:14:24;19.00;32.30
27823;DHT22;29019;47.630;8.262;2023-03-12T05:18:24;19.10;32.20
27823;DHT22;29019;47.630;8.262;2023-03-12T05:22:26;19.20;32.10
27823;DHT22;29019;47.630;8.262;2023-03-12T05:26:27;19.30;32.10
27823;DHT22;29019;47.630;8.262;2023-03-12T05:30:30;19.40;32.00
27823;DHT22;29019;47.630;8.262;2023-03-12T05:34:30;19.50;32.00
27823;DHT22;29019;47.630;8.262;2023-03-12T05:38:31;19.60;32.00
27823;DHT22;29019;47.630;8.262;2023-03-12T05:42:31;19.70;31.90
27823;DHT22;29019;47.630;8.262;2023-03-12T05:46:32;19.70;31.90
27823;DHT22;29019;47.630;8.262;2023-03-12T05:50:32;19.80;31.90
27823;DHT22;29019;47.630;8.262;2023-03-12T05:54:33;19.80;31.90
27823;DHT22;29019;47.630;8.262;2023-03-12T05:58:34;19.90;32.00
27823;DHT22;29019;47.630;8.262;2023-03-12T06:02:34;19.90;31.80
27823;DHT22;29019;47.630;8.262;2023-03-12T06:06:35;20.00;31.90
27823;DHT22;29019;47.630;8.262;2023-03-12T06:10:36;20.00;31.90
27823;DHT22;29019;47.630;8.262;2023-03-12T06:14:37;20.00;31.90
27823;DHT22;29019;47.630;8.262;2023-03-12T06:18:37;20.00;31.90
27823;DHT22;29019;47.630;8.262;2023-03-12T06:22:38;20.00;31.90
27823;DHT22;29019;47.630;8.262;2023-03-12T06:26:38;20.00;31.80
27823;DHT22;29019;47.630;8.262;2023-03-12T06:30:39;20.00;31.90
27823;DHT22;29019;47.630;8.262;2023-03-12T06:34:40;19.90;31.90
27823;DHT22;29019;47.630;8.262;2023-03-12T06:38:40;19.90;31.90
27823;DHT22;29019;47.630;8.262;2023-03-12T06:42:41;19.90;31.90
27823;DHT22;29019;47.630;8.262;2023-03-12T06:46:42;19.90;32.00
27823;DHT22;29019;47.630;8.262;2023-03-12T06:50:43;19.90;32.00
27823;DHT22;29019;47.630;8.262;2023-03-12T06:54:43;19.90;32.10
27823;DHT22;29019;47.630;8.262;2023-03-12T06:58:44;19.90;32.10
27823;DHT22;29019;47.630;8.262;2023-03-12T07:02:44;20.00;32.00
27823;DHT22;29019;47.630;8.262;2023-03-12T07:06:45;20.00;32.00
27823;DHT22;29019;47.630;8.262;2023-03-12T07:10:49;20.00;32.00
27823;DHT22;29019;47.630;8.262;2023-03-12T07:14:50;20.10;32.00
27823;DHT22;29019;47.630;8.262;2023-03-12T07:18:50;20.10;32.10
27823;DHT22;29019;47.630;8.262;2023-03-12T07:22:51;20.20;32.00
27823;DHT22;29019;47.630;8.262;2023-03-12T07:26:51;20.20;32.10
27823;DHT22;29019;47.630;8.262;2023-03-12T07:30:52;20.20;32.00
27823;DHT22;29019;47.630;8.262;2023-03-12T07:34:52;20.20;31.90
27823;DHT22;29019;47.630;8.262;2023-03-12T07:38:53;20.20;31.90
27823;DHT22;29019;47.630;8.262;2023-03-12T07:42:53;20.20;31.90
27823;DHT22;29019;47.630;8.262;2023-03-12T07:46:54;20.30;32.00
27823;DHT22;29019;47.630;8.262;2023-03-12T07:50:54;20.20;31.80
27823;DHT22;29019;47.630;8.262;2023-03-12T07:54:54;20.20;31.90
27823;DHT22;29019;47.630;8.262;2023-03-12T07:58:55;20.20;32.00
27823;DHT22;29019;47.630;8.262;2023-03-12T08:02:56;20.20;32.10
27823;DHT22;29019;47.630;8.262;2023-03-12T08:06:56;20.10;32.10
27823;DHT22;29019;47.630;8.262;2023-03-12T08:10:57;20.10;32.30
27823;DHT22;29019;47.630;8.262;2023-03-12T08:14:58;20.10;32.20
27823;DHT22;29019;47.630;8.262;2023-03-12T08:18:58;20.00;32.20
27823;DHT22;29019;47.630;8.262;2023-03-12T08:22:59;20.00;32.20
27823;DHT22;29019;47.630;8.262;2023-03-12T08:27:00;20.00;32.30
27823;DHT22;29019;47.630;8.262;2023-03-12T08:31:00;20.00;32.30
27823;DHT22;29019;47.630;8.262;2023-03-12T08:35:01;20.00;32.30
27823;DHT22;29019;47.630;8.262;2023-03-12T08:39:04;20.10;32.20
27823;DHT22;29019;47.630;8.262;2023-03-12T08:43:05;20.20;32.10
27823;DHT22;29019;47.630;8.262;2023-03-12T08:47:06;20.20;32.10
27823;DHT22;29019;47.630;8.262;2023-03-12T08:51:07;20.30;32.10
27823;DHT22;29019;47.630;8.262;2023-03-12T08:55:08;20.30;32.10
27823;DHT22;29019;47.630;8.262;2023-03-12T08:59:09;20.40;32.10
27823;DHT22;29019;47.630;8.262;2023-03-12T09:03:10;20.40;32.10
27823;DHT22;29019;47.630;8.262;2023-03-12T09:07:13;20.40;32.00
27823;DHT22;29019;47.630;8.262;2023-03-12T09:11:14;20.50;32.10
27823;DHT22;29019;47.630;8.262;2023-03-12T09:15:14;20.50;32.00
27823;DHT22;29019;47.630;8.262;2023-03-12T09:19:15;20.50;32.00
27823;DHT22;29019;47.630;8.262;2023-03-12T09:23:16;20.40;32.00
27823;DHT22;29019;47.630;8.262;2023-03-12T09:27:16;20.40;32.10
27823;DHT22;29019;47.630;8.262;2023-03-12T09:31:16;20.40;32.10
27823;DHT22;29019;47.630;8.262;2023-03-12T09:35:17;20.40;32.10
27823;DHT22;29019;47.630;8.262;2023-03-12T09:39:17;20.30;32.20
27823;DHT22;29019;47.630;8.262;2023-03-12T09:47:24;20.30;32.20
27823;DHT22;29019;47.630;8.262;2023-03-12T09:51:27;20.20;32.30
27823;DHT22;29019;47.630;8.262;2023-03-12T09:55:34;20.20;32.40
27823;DHT22;29019;47.630;8.262;2023-03-12T09:59:36;20.20;32.30
27823;DHT22;29019;47.630;8.262;2023-03-12T10:07:56;20.20;32.40
27823;DHT22;29019;47.630;8.262;2023-03-12T10:12:03;20.30;32.40
27823;DHT22;29019;47.630;8.262;2023-03-12T10:16:23;20.40;32.40
27823;DHT22;29019;47.630;8.262;2023-03-12T10:28:59;20.50;32.30
27823;DHT22;29019;47.630;8.262;2023-03-12T10:33:01;20.60;32.30
27823;DHT22;29019;47.630;8.262;2023-03-12T10:41:20;20.60;32.20
27823;DHT22;29019;47.630;8.262;2023-03-12T10:49:22;20.70;32.30
27823;DHT22;29019;47.630;8.262;2023-03-12T10:53:23;20.70;32.40
27823;DHT22;29019;47.630;8.262;2023-03-12T10:57:30;20.70;32.40
27823;DHT22;29019;47.630;8.262;2023-03-12T11:01:37;20.70;32.40
27823;DHT22;29019;47.630;8.262;2023-03-12T11:05:47;20.70;32.50
27823;DHT22;29019;47.630;8.262;2023-03-12T11:10:02;20.70;32.50
27823;DHT22;29019;47.630;8.262;2023-03-12T11:14:16;20.60;32.50
27823;DHT22;29019;47.630;8.262;2023-03-12T11:22:31;20.60;32.70
27823;DHT22;29019;47.630;8.262;2023-03-12T11:30:37;20.60;32.70
27823;DHT22;29019;47.630;8.262;2023-03-12T11:34:38;20.60;32.80
27823;DHT22;29019;47.630;8.262;2023-03-12T11:38:40;20.60;32.80
27823;DHT22;29019;47.630;8.262;2023-03-12T11:50:59;20.70;32.80
27823;DHT22;29019;47.630;8.262;2023-03-12T11:55:15;20.70;32.80
27823;DHT22;29019;47.630;8.262;2023-03-12T11:59:39;20.80;32.90
27823;DHT22;29019;47.630;8.262;2023-03-12T12:11:46;20.90;32.90
27823;DHT22;29019;47.630;8.262;2023-03-12T12:15:53;20.90;32.90
27823;DHT22;29019;47.630;8.262;2023-03-12T12:20:20;21.00;33.00
27823;DHT22;29019;47.630;8.262;2023-03-12T12:32:31;20.90;33.00
27823;DHT22;29019;47.630;8.262;2023-03-12T12:36:34;20.90;33.00
27823;DHT22;29019;47.630;8.262;2023-03-12T12:44:50;20.90;33.10
27823;DHT22;29019;47.630;8.262;2023-03-12T12:48:52;20.90;33.20
27823;DHT22;29019;47.630;8.262;2023-03-12T12:52:56;20.90;33.20
27823;DHT22;29019;47.630;8.262;2023-03-12T12:57:02;20.90;33.20
27823;DHT22;29019;47.630;8.262;2023-03-12T13:01:04;20.80;33.20
27823;DHT22;29019;47.630;8.262;2023-03-12T13:09:19;20.80;33.20
27823;DHT22;29019;47.630;8.262;2023-03-12T13:13:22;20.80;33.30
27823;DHT22;29019;47.630;8.262;2023-03-12T13:29:58;20.90;33.30
27823;DHT22;29019;47.630;8.262;2023-03-12T13:38:17;21.00;33.20
27823;DHT22;29019;47.630;8.262;2023-03-12T13:42:36;21.00;33.20
27823;DHT22;29019;47.630;8.262;2023-03-12T13:46:38;21.10;33.10
27823;DHT22;29019;47.630;8.262;2023-03-12T13:50:41;21.10;33.20
27823;DHT22;29019;47.630;8.262;2023-03-12T13:54:48;21.10;33.10
27823;DHT22;29019;47.630;8.262;2023-03-12T13:58:56;21.10;33.60
27823;DHT22;29019;47.630;8.262;2023-03-12T14:02:58;21.10;33.10
27823;DHT22;29019;47.630;8.262;2023-03-12T14:11:18;21.10;33.10
27823;DHT22;29019;47.630;8.262;2023-03-12T14:19:25;21.00;33.10
27823;DHT22;29019;47.630;8.262;2023-03-12T14:23:27;21.00;33.10
27823;DHT22;29019;47.630;8.262;2023-03-12T14:27:30;21.00;33.10
27823;DHT22;29019;47.630;8.262;2023-03-12T14:31:30;21.00;33.10
27823;DHT22;29019;47.630;8.262;2023-03-12T14:35:39;21.00;33.10
27823;DHT22;29019;47.630;8.262;2023-03-12T14:39:42;21.00;33.10
27823;DHT22;29019;47.630;8.262;2023-03-12T14:43:44;21.00;33.10
27823;DHT22;29019;47.630;8.262;2023-03-12T14:47:52;20.90;33.00
27823;DHT22;29019;47.630;8.262;2023-03-12T14:51:54;20.90;33.00
27823;DHT22;29019;47.630;8.262;2023-03-12T15:00:01;20.90;33.00
27823;DHT22;29019;47.630;8.262;2023-03-12T15:04:03;20.90;33.00
27823;DHT22;29019;47.630;8.262;2023-03-12T15:08:04;21.00;33.00
27823;DHT22;29019;47.630;8.262;2023-03-12T15:12:06;21.00;33.00
27823;DHT22;29019;47.630;8.262;2023-03-12T15:16:07;21.00;32.90
27823;DHT22;29019;47.630;8.262;2023-03-12T15:20:13;21.10;32.90
27823;DHT22;29019;47.630;8.262;2023-03-12T15:24:14;21.10;32.80
27823;DHT22;29019;47.630;8.262;2023-03-12T15:32:18;21.20;32.80
27823;DHT22;29019;47.630;8.262;2023-03-12T15:36:24;21.20;32.80
27823;DHT22;29019;47.630;8.262;2023-03-12T15:40:26;21.20;32.80
27823;DHT22;29019;47.630;8.262;2023-03-12T15:44:28;21.20;32.80
27823;DHT22;29019;47.630;8.262;2023-03-12T15:48:37;21.20;32.80
27823;DHT22;29019;47.630;8.262;2023-03-12T15:52:38;21.20;32.80
27823;DHT22;29019;47.630;8.262;2023-03-12T15:56:39;21.20;32.80
27823;DHT22;29019;47.630;8.262;2023-03-12T16:00:43;21.20;32.80
27823;DHT22;29019;47.630;8.262;2023-03-12T16:04:43;21.10;32.80
27823;DHT22;29019;47.630;8.262;2023-03-12T16:08:45;21.10;32.90
27823;DHT22;29019;47.630;8.262;2023-03-12T16:12:46;21.10;32.90
27823;DHT22;29019;47.630;8.262;2023-03-12T16:16:47;21.10;32.90
27823;DHT22;29019;47.630;8.262;2023-03-12T16:20:48;21.10;32.90
27823;DHT22;29019;47.630;8.262;2023-03-12T16:24:49;21.00;32.90
27823;DHT22;29019;47.630;8.262;2023-03-12T16:28:49;21.00;32.90
27823;DHT22;29019;47.630;8.262;2023-03-12T16:32:49;21.00;32.90
27823;DHT22;29019;47.630;8.262;2023-03-12T16:36:50;21.00;32.90
27823;DHT22;29019;47.630;8.262;2023-03-12T16:40:51;20.90;33.00
27823;DHT22;29019;47.630;8.262;2023-03-12T16:44:51;20.90;33.10
27823;DHT22;29019;47.630;8.262;2023-03-12T16:48:52;21.00;33.10
27823;DHT22;29019;47.630;8.262;2023-03-12T16:52:52;21.00;33.10
27823;DHT22;29019;47.630;8.262;2023-03-12T16:56:53;21.00;33.00
27823;DHT22;29019;47.630;8.262;2023-03-12T17:00:54;21.10;33.00
27823;DHT22;29019;47.630;8.262;2023-03-12T17:04:54;21.10;33.00
27823;DHT22;29019;47.630;8.262;2023-03-12T17:08:55;21.10;32.90
27823;DHT22;29019;47.630;8.262;2023-03-12T17:12:55;21.20;32.90
27823;DHT22;29019;47.630;8.262;2023-03-12T17:16:56;21.20;32.90
27823;DHT22;29019;47.630;8.262;2023-03-12T17:20:56;21.20;32.90
27823;DHT22;29019;47.630;8.262;2023-03-12T17:24:57;21.20;32.90
27823;DHT22;29019;47.630;8.262;2023-03-12T17:28:57;21.20;32.90
27823;DHT22;29019;47.630;8.262;2023-03-12T17:33:02;21.20;32.80
27823;DHT22;29019;47.630;8.262;2023-03-12T17:37:03;21.20;33.00
27823;DHT22;29019;47.630;8.262;2023-03-12T17:41:04;21.10;33.00
27823;DHT22;29019;47.630;8.262;2023-03-12T17:45:05;21.10;33.00
27823;DHT22;29019;47.630;8.262;2023-03-12T17:49:06;21.10;33.00
27823;DHT22;29019;47.630;8.262;2023-03-12T17:53:07;21.10;33.10
27823;DHT22;29019;47.630;8.262;2023-03-12T17:57:07;21.00;33.00
27823;DHT22;29019;47.630;8.262;2023-03-12T18:01:08;21.00;33.10
27823;DHT22;29019;47.630;8.262;2023-03-12T18:05:09;21.00;33.00
27823;DHT22;29019;47.630;8.262;2023-03-12T18:09:10;21.00;33.00
27823;DHT22;29019;47.630;8.262;2023-03-12T18:13:10;20.90;33.00
27823;DHT22;29019;47.630;8.262;2023-03-12T18:17:11;20.90;33.00
27823;DHT22;29019;47.630;8.262;2023-03-12T18:21:11;20.90;33.00
27823;DHT22;29019;47.630;8.262;2023-03-12T18:25:11;20.90;33.00
27823;DHT22;29019;47.630;8.262;2023-03-12T18:29:12;20.90;33.00
27823;DHT22;29019;47.630;8.262;2023-03-12T18:33:13;20.90;33.10
27823;DHT22;29019;47.630;8.262;2023-03-12T18:37:13;20.90;33.10
27823;DHT22;29019;47.630;8.262;2023-03-12T18:41:13;20.90;33.10
27823;DHT22;29019;47.630;8.262;2023-03-12T18:45:14;20.90;33.10
27823;DHT22;29019;47.630;8.262;2023-03-12T18:49:15;21.00;33.10
27823;DHT22;29019;47.630;8.262;2023-03-12T18:53:15;21.00;33.00
27823;DHT22;29019;47.630;8.262;2023-03-12T18:57:16;21.10;33.00
27823;DHT22;29019;47.630;8.262;2023-03-12T19:01:16;21.10;33.00
27823;DHT22;29019;47.630;8.262;2023-03-12T19:05:16;21.10;33.00
27823;DHT22;29019;47.630;8.262;2023-03-12T19:09:17;21.20;33.00
27823;DHT22;29019;47.630;8.262;2023-03-12T19:13:18;21.20;33.00
27823;DHT22;29019;47.630;8.262;2023-03-12T19:17:18;21.20;33.00
27823;DHT22;29019;47.630;8.262;2023-03-12T19:21:19;21.20;33.10
27823;DHT22;29019;47.630;8.262;2023-03-12T19:25:19;21.20;33.50
27823;DHT22;29019;47.630;8.262;2023-03-12T19:29:19;21.20;33.00
27823;DHT22;29019;47.630;8.262;2023-03-12T19:33:20;21.10;32.90
27823;DHT22;29019;47.630;8.262;2023-03-12T19:37:20;21.10;33.00
27823;DHT22;29019;47.630;8.262;2023-03-12T19:41:21;21.10;33.00
27823;DHT22;29019;47.630;8.262;2023-03-12T19:45:22;21.00;33.00
27823;DHT22;29019;47.630;8.262;2023-03-12T19:49:23;21.00;33.00
27823;DHT22;29019;47.630;8.262;2023-03-12T19:53:23;21.00;33.00
27823;DHT22;29019;47.630;8.262;2023-03-12T19:57:24;21.00;33.00
27823;DHT22;29019;47.630;8.262;2023-03-12T20:01:24;21.00;33.10
27823;DHT22;29019;47.630;8.262;2023-03-12T20:05:25;20.90;33.00
27823;DHT22;29019;47.630;8.262;2023-03-12T20:09:25;20.90;33.00
27823;DHT22;29019;47.630;8.262;2023-03-12T20:13:26;20.90;33.00
27823;DHT22;29019;47.630;8.262;2023-03-12T20:17:26;20.90;33.00
27823;DHT22;29019;47.630;8.262;2023-03-12T20:21:27;20.90;33.10
27823;DHT22;29019;47.630;8.262;2023-03-12T20:25:27;20.90;33.20
27823;DHT22;29019;47.630;8.262;2023-03-12T20:29:28;20.90;33.10
27823;DHT22;29019;47.630;8.262;2023-03-12T20:33:28;20.90;33.10
27823;DHT22;29019;47.630;8.262;2023-03-12T20:37:28;21.00;33.00
27823;DHT22;29019;47.630;8.262;2023-03-12T20:41:29;21.00;33.00
27823;DHT22;29019;47.630;8.262;2023-03-12T20:45:30;21.00;33.00
27823;DHT22;29019;47.630;8.262;2023-03-12T20:49:31;21.10;32.90
27823;DHT22;29019;47.630;8.262;2023-03-12T20:53:32;21.10;32.90
27823;DHT22;29019;47.630;8.262;2023-03-12T20:57:32;21.20;32.90
27823;DHT22;29019;47.630;8.262;2023-03-12T21:01:33;21.10;32.80
27823;DHT22;29019;47.630;8.262;2023-03-12T21:05:33;21.10;32.90
27823;DHT22;29019;47.630;8.262;2023-03-12T21:09:34;21.10;32.90
27823;DHT22;29019;47.630;8.262;2023-03-12T21:13:34;21.10;32.90
27823;DHT22;29019;47.630;8.262;2023-03-12T21:17:35;21.10;32.90
27823;DHT22;29019;47.630;8.262;2023-03-12T21:21:37;21.10;32.90
27823;DHT22;29019;47.630;8.262;2023-03-12T21:25:38;21.00;33.50
27823;DHT22;29019;47.630;8.262;2023-03-12T21:29:39;21.00;33.00
27823;DHT22;29019;47.630;8.262;2023-03-12T21:33:39;21.00;32.90
27823;DHT22;29019;47.630;8.262;2023-03-12T21:37:40;20.90;32.90
27823;DHT22;29019;47.630;8.262;2023-03-12T21:41:40;20.90;32.90
27823;DHT22;29019;47.630;8.262;2023-03-12T21:45:40;20.90;32.90
27823;DHT22;29019;47.630;8.262;2023-03-12T21:49:41;20.90;32.90
27823;DHT22;29019;47.630;8.262;2023-03-12T21:53:41;20.90;32.90
27823;DHT22;29019;47.630;8.262;2023-03-12T21:57:45;20.90;32.90
27823;DHT22;29019;47.630;8.262;2023-03-12T22:01:46;20.80;32.90
27823;DHT22;29019;47.630;8.262;2023-03-12T22:05:49;20.80;32.90
27823;DHT22;29019;47.630;8.262;2023-03-12T22:09:50;20.80;32.90
27823;DHT22;29019;47.630;8.262;2023-03-12T22:13:50;20.70;32.90
27823;DHT22;29019;47.630;8.262;2023-03-12T22:17:50;20.70;32.90
27823;DHT22;29019;47.630;8.262;2023-03-12T22:21:51;20.70;33.00
27823;DHT22;29019;47.630;8.262;2023-03-12T22:25:51;20.60;32.90
27823;DHT22;29019;47.630;8.262;2023-03-12T22:29:52;20.60;33.00
27823;DHT22;29019;47.630;8.262;2023-03-12T22:33:52;20.60;32.90
27823;DHT22;29019;47.630;8.262;2023-03-12T22:37:54;20.60;33.00
27823;DHT22;29019;47.630;8.262;2023-03-12T22:41:55;20.60;33.00
27823;DHT22;29019;47.630;8.262;2023-03-12T22:45:55;20.50;33.00
27823;DHT22;29019;47.630;8.262;2023-03-12T22:49:56;20.50;33.00
27823;DHT22;29019;47.630;8.262;2023-03-12T22:53:57;20.50;33.00
27823;DHT22;29019;47.630;8.262;2023-03-12T22:57:58;20.50;33.00
27823;DHT22;29019;47.630;8.262;2023-03-12T23:01:58;20.40;33.00
27823;DHT22;29019;47.630;8.262;2023-03-12T23:05:59;20.40;33.00
27823;DHT22;29019;47.630;8.262;2023-03-12T23:09:59;20.40;33.10
27823;DHT22;29019;47.630;8.262;2023-03-12T23:14:00;20.40;33.10
27823;DHT22;29019;47.630;8.262;2023-03-12T23:18:00;20.40;33.10
27823;DHT22;29019;47.630;8.262;2023-03-12T23:22:01;20.30;33.10
27823;DHT22;29019;47.630;8.262;2023-03-12T23:26:01;20.30;33.00
27823;DHT22;29019;47.630;8.262;2023-03-12T23:30:02;20.30;33.10
27823;DHT22;29019;47.630;8.262;2023-03-12T23:34:03;20.20;33.10
27823;DHT22;29019;47.630;8.262;2023-03-12T23:38:04;20.20;33.10
27823;DHT22;29019;47.630;8.262;2023-03-12T23:42:06;20.20;33.10
27823;DHT22;29019;47.630;8.262;2023-03-12T23:46:06;20.20;33.10
27823;DHT22;29019;47.630;8.262;2023-03-12T23:50:07;20.20;33.10
27823;DHT22;29019;47.630;8.262;2023-03-12T23:54:08;20.20;33.20
27823;DHT22;29019;47.630;8.262;2023-03-12T23:58:08;20.20;33.20
